Time;durP1;ratioP1;P1;durP2;ratioP2;P2;SDS_P1;SDS_P2;PMS_P1;PMS_P2;Temp;Humidity;BMP_temperature;BMP_pressure;BME280_temperature;BME280_humidity;BME280_pressure;Samples;Min_cycle;Max_cycle;Signal;HPM_P1;HPM_P2
2023/10/23 00:00:49;;;;;;;;;2.00;1.00;;;;;16.77;65.52;99109.63;5093977;27;45295;-72
2023/10/23 00:03:15;;;;;;;;;1.00;1.00;;;;;16.46;64.71;99076.78;5095569;27;45436;-72
2023/10/23 00:05:41;;;;;;;;;2.67;2.00;;;;;16.67;64.88;99103.66;5085305;27;45480;-73
2023/10/23 00:08:06;;;;;;;;;2.00;2.00;;;;;16.57;66.13;99105.56;5095582;27;45625;-73
2023/10/23 00:10:32;;;;;;;;;3.00;1.67;;;;;16.48;66.42;99087.31;5089622;27;45562;-74
2023/10/23 00:12:57;;;;;;;;;2.00;2.00;;;;;16.41;67.20;99075.13;5091832;27;47497;-73
2023/10/23 00:15:23;;;;;;;;;1.67;1.67;;;;;16.34;66.09;99079.63;5092561;27;45374;-72
2023/10/23 00:17:49;;;;;;;;;2.00;2.00;;;;;16.34;66.35;99089.31;5088866;27;45465;-72
2023/10/23 00:20:15;;;;;;;;;2.00;2.00;;;;;16.30;67.33;99075.31;5086807;27;46047;-71
2023/10/23 00:22:40;;;;;;;;;2.00;1.67;;;;;16.35;66.24;99081.34;5084041;27;46035;-74
2023/10/23 00:25:06;;;;;;;;;1.00;1.00;;;;;16.53;67.73;99101.25;5089320;27;45386;-74
2023/10/23 00:27:32;;;;;;;;;2.25;2.00;;;;;16.34;67.21;99077.00;5090038;27;45465;-73
2023/10/23 00:29:57;;;;;;;;;1.33;1.33;;;;;16.36;67.72;99069.94;5085903;27;45419;-73
2023/10/23 00:32:23;;;;;;;;;1.33;1.33;;;;;16.43;66.79;99086.50;5086176;27;45465;-73
2023/10/23 00:34:49;;;;;;;;;2.00;2.00;;;;;16.27;66.60;99052.53;5083067;27;45332;-72
2023/10/23 00:37:14;;;;;;;;;1.67;1.67;;;;;16.22;68.20;99030.66;5085245;27;45454;-74
2023/10/23 00:39:40;;;;;;;;;2.67;2.00;;;;;16.38;68.91;99067.28;5092206;27;45222;-74
2023/10/23 00:42:05;;;;;;;;;3.25;2.50;;;;;16.37;67.47;99057.63;5093384;27;45351;-75
2023/10/23 00:44:31;;;;;;;;;3.00;3.00;;;;;16.34;68.03;99062.97;5093701;27;45536;-74
2023/10/23 00:46:57;;;;;;;;;1.00;1.00;;;;;16.14;68.95;99029.03;5095097;27;45556;-74
2023/10/23 00:49:23;;;;;;;;;2.67;2.00;;;;;16.27;68.90;99044.63;5088185;27;45444;-75
2023/10/23 00:51:49;;;;;;;;;2.33;2.00;;;;;16.14;69.80;99052.75;5081767;27;46219;-75
2023/10/23 00:54:17;;;;;;;;;2.33;1.33;;;;;15.90;70.64;99036.44;5092866;27;45535;-74
2023/10/23 00:56:43;;;;;;;;;2.33;1.67;;;;;15.74;70.22;99003.34;5088784;27;45482;-75
2023/10/23 00:59:09;;;;;;;;;2.00;2.00;;;;;15.99;70.24;99028.38;5088252;27;45513;-75
2023/10/23 01:01:36;;;;;;;;;1.33;1.00;;;;;16.01;69.41;99012.56;5083349;27;45372;-76
2023/10/23 01:04:04;;;;;;;;;1.00;1.00;;;;;16.07;69.08;99013.31;5087601;27;45380;-74
2023/10/23 01:06:30;;;;;;;;;2.00;2.00;;;;;16.29;68.78;99028.75;5085578;27;45550;-74
2023/10/23 01:08:56;;;;;;;;;2.00;1.50;;;;;16.20;68.81;98998.19;5089396;27;45358;-75
2023/10/23 01:11:22;;;;;;;;;1.00;0.33;;;;;16.20;67.73;98994.69;5093235;27;45530;-74
2023/10/23 01:13:48;;;;;;;;;2.00;1.00;;;;;16.26;67.79;98997.22;5093795;27;45897;-75
2023/10/23 01:16:13;;;;;;;;;1.00;1.00;;;;;15.97;68.33;98972.22;5091867;27;46049;-74
2023/10/23 01:18:39;;;;;;;;;1.00;1.00;;;;;16.13;67.36;99006.22;5090979;27;45390;-74
2023/10/23 01:21:05;;;;;;;;;1.33;1.00;;;;;16.10;66.69;99007.16;5093762;27;45252;-75
2023/10/23 01:23:35;;;;;;;;;1.00;1.00;;;;;16.01;67.26;98986.22;5086562;27;45548;-75
2023/10/23 01:26:01;;;;;;;;;1.00;1.00;;;;;16.10;67.58;98994.84;5092065;27;45528;-74
2023/10/23 01:28:26;;;;;;;;;1.00;1.00;;;;;16.10;68.13;98988.72;5097216;27;45235;-74
2023/10/23 01:30:52;;;;;;;;;1.00;1.00;;;;;16.06;67.79;98961.53;5096333;27;45523;-76
2023/10/23 01:33:18;;;;;;;;;0.67;0.67;;;;;16.13;65.87;98964.06;5082255;27;45284;-76
2023/10/23 01:35:43;;;;;;;;;0.00;0.00;;;;;16.16;66.02;98971.94;5093275;27;45474;-74
2023/10/23 01:38:12;;;;;;;;;1.00;0.33;;;;;16.12;66.44;98971.09;5096307;27;45333;-74
2023/10/23 01:40:37;;;;;;;;;0.00;0.00;;;;;16.08;66.43;98975.56;5084035;27;47083;-74
2023/10/23 01:43:03;;;;;;;;;0.00;0.00;;;;;16.03;66.16;98960.72;5085202;27;45706;-74
2023/10/23 01:45:28;;;;;;;;;2.00;2.00;;;;;16.01;66.66;98970.41;5089452;27;45859;-75
2023/10/23 01:47:54;;;;;;;;;1.00;1.00;;;;;16.03;66.90;98966.84;5089318;27;45520;-74
2023/10/23 01:50:20;;;;;;;;;2.00;1.00;;;;;16.09;67.03;98976.41;5081755;27;45916;-74
2023/10/23 01:52:45;;;;;;;;;0.00;0.00;;;;;16.01;65.84;98968.66;5089887;27;45432;-74
2023/10/23 01:55:11;;;;;;;;;1.00;0.00;;;;;15.85;65.66;98930.31;5097427;27;45476;-74
2023/10/23 01:57:37;;;;;;;;;2.00;1.00;;;;;15.88;67.69;98936.41;5092904;27;45411;-75
2023/10/23 02:00:04;;;;;;;;;0.00;0.00;;;;;15.85;67.75;98948.75;5094204;27;45427;-74
2023/10/23 02:02:33;;;;;;;;;1.00;1.00;;;;;15.67;67.33;98895.47;5087698;27;45459;-75
2023/10/23 02:04:59;;;;;;;;;1.00;1.00;;;;;14.78;65.95;98746.13;5095111;27;45395;-75
2023/10/23 02:07:27;;;;;;;;;2.00;1.00;;;;;15.71;67.38;98923.47;5082682;27;45651;-74
2023/10/23 02:09:53;;;;;;;;;1.00;1.00;;;;;15.48;66.71;98894.94;5088788;27;45476;-75
2023/10/23 02:12:19;;;;;;;;;0.67;0.67;;;;;15.40;67.58;98880.13;5092824;27;45432;-74
2023/10/23 02:14:44;;;;;;;;;1.00;1.00;;;;;15.45;68.12;98900.22;5089156;27;45473;-74
2023/10/23 02:17:10;;;;;;;;;0.67;0.00;;;;;15.50;67.80;98901.03;5095065;27;45342;-74
2023/10/23 02:19:36;;;;;;;;;0.00;0.00;;;;;15.34;67.87;98865.34;5089110;27;45385;-74
2023/10/23 02:22:01;;;;;;;;;1.00;1.00;;;;;15.37;69.22;98882.84;5081228;27;45473;-74
2023/10/23 02:24:27;;;;;;;;;0.00;0.00;;;;;15.37;68.98;98874.94;5087747;27;45399;-74
2023/10/23 02:26:54;;;;;;;;;0.00;0.00;;;;;15.61;68.77;98898.22;5084878;27;45544;-75
2023/10/23 02:29:19;;;;;;;;;0.00;0.00;;;;;15.53;68.75;98889.56;5092473;27;46303;-74
2023/10/23 02:31:45;;;;;;;;;0.00;0.00;;;;;15.68;68.31;98897.22;5096407;27;45399;-75
2023/10/23 02:34:11;;;;;;;;;0.00;0.00;;;;;15.50;67.70;98872.09;5092577;27;45488;-74
2023/10/23 02:36:37;;;;;;;;;0.00;0.00;;;;;15.52;68.15;98870.28;5086435;27;45460;-74
2023/10/23 02:39:03;;;;;;;;;0.67;0.67;;;;;15.44;67.62;98855.53;5094587;27;46253;-74
2023/10/23 02:41:29;;;;;;;;;0.00;0.00;;;;;15.57;67.43;98877.25;5089654;27;45697;-73
2023/10/23 02:43:55;;;;;;;;;0.00;0.00;;;;;15.24;68.43;98825.16;5086290;27;45765;-74
2023/10/23 02:46:21;;;;;;;;;0.33;0.00;;;;;15.59;68.33;98894.75;5087510;27;45485;-74
2023/10/23 02:48:46;;;;;;;;;1.00;0.00;;;;;15.16;68.70;98811.28;5090422;27;45353;-75
2023/10/23 02:51:12;;;;;;;;;0.00;0.00;;;;;15.53;68.63;98876.41;5083277;27;45433;-74
2023/10/23 02:53:38;;;;;;;;;0.33;0.33;;;;;15.68;68.41;98909.53;5095471;27;45318;-73
2023/10/23 02:56:09;;;;;;;;;0.00;0.00;;;;;15.68;68.98;98888.47;5092568;27;45480;-73
2023/10/23 02:58:35;;;;;;;;;1.00;1.00;;;;;15.62;68.72;98894.69;5093599;27;45580;-73
2023/10/23 03:01:01;;;;;;;;;1.75;1.00;;;;;15.61;69.12;98899.97;5089851;27;45351;-73
2023/10/23 03:03:29;;;;;;;;;0.33;0.33;;;;;15.63;69.33;98893.78;5095217;27;45151;-74
2023/10/23 03:05:54;;;;;;;;;2.00;1.00;;;;;15.58;69.30;98876.34;5094882;27;45434;-73
2023/10/23 03:08:20;;;;;;;;;1.00;1.00;;;;;15.49;69.43;98865.06;5097042;27;45427;-73
2023/10/23 03:10:45;;;;;;;;;1.33;1.00;;;;;15.75;69.24;98878.72;5087820;27;45339;-73
2023/10/23 03:13:11;;;;;;;;;3.75;3.00;;;;;15.69;69.75;98887.56;5097120;27;45515;-76
2023/10/23 03:15:37;;;;;;;;;1.00;1.00;;;;;15.70;69.50;98886.69;5093267;27;45611;-74
2023/10/23 03:18:06;;;;;;;;;2.00;1.00;;;;;15.65;69.22;98857.78;5090315;27;45510;-74
2023/10/23 03:20:31;;;;;;;;;1.00;0.33;;;;;15.77;69.20;98893.59;5095548;27;45597;-73
2023/10/23 03:22:57;;;;;;;;;1.00;0.00;;;;;15.69;69.09;98872.63;5093121;27;45585;-74
2023/10/23 03:25:23;;;;;;;;;0.00;0.00;;;;;15.83;69.00;98889.97;5099549;27;45478;-74
2023/10/23 03:27:49;;;;;;;;;1.00;1.00;;;;;15.77;69.00;98885.69;5097106;27;46233;-75
2023/10/23 03:30:14;;;;;;;;;0.00;0.00;;;;;15.75;69.51;98899.78;5090349;27;45420;-76
2023/10/23 03:32:40;;;;;;;;;0.00;0.00;;;;;15.77;69.40;98909.38;5094941;27;45393;-75
2023/10/23 03:35:06;;;;;;;;;0.00;0.00;;;;;15.77;69.53;98906.75;5098017;27;45448;-75
2023/10/23 03:37:31;;;;;;;;;0.00;0.00;;;;;15.74;69.40;98898.03;5083635;27;46064;-75
2023/10/23 03:39:57;;;;;;;;;0.00;0.00;;;;;15.64;69.91;98895.53;5091374;27;45437;-75
2023/10/23 03:42:23;;;;;;;;;0.00;0.00;;;;;15.66;69.75;98904.28;5098675;27;45512;-75
2023/10/23 03:44:49;;;;;;;;;0.33;0.00;;;;;15.68;69.60;98907.75;5094462;27;45444;-74
2023/10/23 03:47:14;;;;;;;;;0.00;0.00;;;;;15.70;69.66;98905.97;5086414;27;46198;-74
2023/10/23 03:49:40;;;;;;;;;0.00;0.00;;;;;15.63;69.37;98888.53;5086225;27;45465;-74
2023/10/23 03:52:05;;;;;;;;;1.00;0.00;;;;;15.79;69.16;98912.84;5084609;27;45484;-74
2023/10/23 03:54:31;;;;;;;;;0.00;0.00;;;;;15.81;69.32;98902.31;5091344;27;45631;-74
2023/10/23 03:56:56;;;;;;;;;0.00;0.00;;;;;15.79;69.21;98910.22;5085745;27;45881;-75
2023/10/23 03:59:22;;;;;;;;;0.00;0.00;;;;;15.50;69.18;98865.97;5094147;27;45580;-75
2023/10/23 04:01:48;;;;;;;;;0.00;0.00;;;;;15.85;68.91;98914.50;5084074;27;45420;-74
2023/10/23 04:04:13;;;;;;;;;0.00;0.00;;;;;15.75;69.01;98912.94;5088675;27;45426;-73
2023/10/23 04:06:39;;;;;;;;;0.00;0.00;;;;;15.83;69.09;98926.84;5095823;27;45286;-74
2023/10/23 04:09:06;;;;;;;;;1.00;0.00;;;;;15.84;69.10;98912.78;5089726;27;45515;-74
2023/10/23 04:11:32;;;;;;;;;0.00;0.00;;;;;15.81;68.76;98912.84;5089863;27;45602;-75
2023/10/23 04:13:57;;;;;;;;;0.00;0.00;;;;;15.88;68.99;98927.63;5096434;27;45362;-74
2023/10/23 04:16:23;;;;;;;;;1.00;0.00;;;;;15.89;68.83;98938.13;5093005;27;46024;-74
2023/10/23 04:18:49;;;;;;;;;0.00;0.00;;;;;15.90;68.98;98944.28;5094924;27;45601;-75
2023/10/23 04:21:14;;;;;;;;;0.00;0.00;;;;;15.91;68.93;98954.75;5089177;27;45378;-76
2023/10/23 04:23:40;;;;;;;;;0.00;0.00;;;;;15.90;68.80;98958.31;5095509;27;45490;-75
2023/10/23 04:26:07;;;;;;;;;0.00;0.00;;;;;15.86;68.87;98961.91;5088461;27;45548;-75
2023/10/23 04:28:33;;;;;;;;;0.00;0.00;;;;;15.61;69.07;98921.91;5096301;27;45513;-74
2023/10/23 04:30:59;;;;;;;;;0.00;0.00;;;;;15.87;68.91;98968.88;5090051;27;45463;-74
2023/10/23 04:33:25;;;;;;;;;0.00;0.00;;;;;15.88;68.62;98967.16;5093215;27;45585;-75
2023/10/23 04:35:57;;;;;;;;;0.00;0.00;;;;;15.88;68.94;98975.91;5090410;27;46029;-75
2023/10/23 04:38:24;;;;;;;;;0.00;0.00;;;;;15.90;68.71;98979.38;5084624;27;45511;-75
2023/10/23 04:40:50;;;;;;;;;0.00;0.00;;;;;15.91;68.56;98977.59;5086886;27;45254;-75
2023/10/23 04:43:16;;;;;;;;;0.00;0.00;;;;;15.88;68.48;98980.31;5093396;27;45452;-73
2023/10/23 04:45:42;;;;;;;;;1.00;0.00;;;;;15.86;68.73;98976.84;5095014;27;45483;-74
2023/10/23 04:48:09;;;;;;;;;0.00;0.00;;;;;15.90;68.75;98992.53;5093287;27;45460;-75
2023/10/23 04:50:37;;;;;;;;;0.00;0.00;;;;;15.91;68.62;98990.78;5095033;27;45321;-73
2023/10/23 04:53:03;;;;;;;;;0.00;0.00;;;;;15.93;68.49;98996.03;5088308;27;45536;-73
2023/10/23 04:55:35;;;;;;;;;0.00;0.00;;;;;15.68;68.89;98972.69;5087731;27;46171;-73
2023/10/23 04:58:02;;;;;;;;;1.00;1.00;;;;;15.78;69.82;99005.91;5090481;27;45307;-73
2023/10/23 05:00:28;;;;;;;;;0.00;0.00;;;;;15.76;69.22;98999.81;5085393;27;45394;-75
2023/10/23 05:02:54;;;;;;;;;0.00;0.00;;;;;15.79;68.85;99004.16;5090269;27;45415;-73
2023/10/23 05:05:20;;;;;;;;;0.00;0.00;;;;;15.77;68.21;98992.78;5091849;27;46111;-73
2023/10/23 05:07:46;;;;;;;;;0.00;0.00;;;;;15.68;68.43;98981.47;5093273;27;45721;-74
2023/10/23 05:10:12;;;;;;;;;0.00;0.00;;;;;15.66;68.38;98974.50;5087153;27;45292;-74
2023/10/23 05:12:38;;;;;;;;;0.00;0.00;;;;;15.79;68.45;98983.09;5090596;27;45402;-73
2023/10/23 05:15:05;;;;;;;;;0.00;0.00;;;;;15.67;68.72;98984.97;5089359;27;46501;-73
2023/10/23 05:17:30;;;;;;;;;0.00;0.00;;;;;15.67;68.83;98995.50;5092744;27;45518;-73
2023/10/23 05:19:56;;;;;;;;;0.00;0.00;;;;;15.67;68.85;98989.38;5091282;27;45368;-73
2023/10/23 05:22:22;;;;;;;;;1.00;0.00;;;;;15.47;68.28;98963.38;5089692;27;45320;-73
2023/10/23 05:24:48;;;;;;;;;0.00;0.00;;;;;15.67;68.76;98999.91;5084798;27;46103;-75
2023/10/23 05:27:15;;;;;;;;;0.00;0.00;;;;;15.66;69.44;99001.69;5085018;27;45322;-72
2023/10/23 05:29:40;;;;;;;;;1.00;1.00;;;;;15.48;69.81;98997.56;5082104;27;45399;-73
2023/10/23 05:32:09;;;;;;;;;0.00;0.00;;;;;15.60;69.73;99006.19;5077070;27;45488;-73
2023/10/23 05:34:35;;;;;;;;;1.00;0.00;;;;;15.59;69.49;99004.41;5080433;27;46375;-73
2023/10/23 05:37:00;;;;;;;;;0.00;0.00;;;;;15.60;69.29;99006.19;5088724;27;45380;-73
2023/10/23 05:39:29;;;;;;;;;0.00;0.00;;;;;15.56;69.10;98993.94;5092389;27;45581;-73
2023/10/23 05:41:55;;;;;;;;;0.00;0.00;;;;;15.62;68.96;99007.03;5094230;27;45214;-72
2023/10/23 05:44:20;;;;;;;;;0.00;0.00;;;;;15.63;69.12;99014.00;5094372;27;46092;-74
2023/10/23 05:46:46;;;;;;;;;0.00;0.00;;;;;15.61;68.99;99015.78;5094862;27;45403;-73
2023/10/23 05:49:11;;;;;;;;;0.00;0.00;;;;;15.50;69.27;99008.94;5091366;27;45533;-74
2023/10/23 05:51:40;;;;;;;;;0.00;0.00;;;;;15.56;69.88;99020.25;5080727;27;45381;-76
2023/10/23 05:54:08;;;;;;;;;0.00;0.00;;;;;15.54;69.34;99009.75;5091519;27;46970;-73
2023/10/23 05:56:33;;;;;;;;;0.00;0.00;;;;;15.35;70.02;98997.75;5090311;27;45517;-74
2023/10/23 05:58:59;;;;;;;;;0.00;0.00;;;;;15.36;70.48;99010.00;5087500;27;45265;-72
2023/10/23 06:01:25;;;;;;;;;1.00;1.00;;;;;15.37;71.05;99033.69;5077201;27;45373;-73
2023/10/23 06:03:50;;;;;;;;;1.33;1.00;;;;;15.43;70.75;99023.06;5083201;27;46965;-73
2023/10/23 06:06:16;;;;;;;;;0.00;0.00;;;;;15.48;70.49;99023.88;5093027;27;45474;-72
2023/10/23 06:08:41;;;;;;;;;1.00;0.00;;;;;15.34;70.47;98980.22;5086272;27;45502;-73
2023/10/23 06:11:13;;;;;;;;;0.67;0.67;;;;;15.32;70.64;98982.91;5090752;27;45608;-73
2023/10/23 06:13:39;;;;;;;;;0.00;0.00;;;;;15.30;70.81;98984.69;5089527;27;45966;-73
2023/10/23 06:16:07;;;;;;;;;2.00;1.00;;;;;14.74;70.79;98889.88;5095035;27;45733;-73
2023/10/23 06:18:34;;;;;;;;;1.00;1.00;;;;;15.39;70.49;98991.56;5089004;27;45592;-73
2023/10/23 06:21:04;;;;;;;;;1.33;1.00;;;;;15.38;70.81;98987.19;5086452;27;45507;-73
2023/10/23 06:23:42;;;;;;;;;1.00;1.00;;;;;15.41;70.87;98995.91;5092766;27;45487;-73
2023/10/23 06:26:08;;;;;;;;;1.00;0.00;;;;;15.38;70.57;98989.81;5093120;27;45666;-73
2023/10/23 06:28:35;;;;;;;;;0.00;0.00;;;;;15.41;70.76;98998.53;5090719;27;46019;-73
2023/10/23 06:31:08;;;;;;;;;1.00;0.67;;;;;15.18;70.46;98975.19;5086276;27;45433;-72
2023/10/23 06:33:42;;;;;;;;;5.00;4.50;;;;;15.29;70.86;99025.88;5090239;27;45665;-74
2023/10/23 06:36:09;;;;;;;;;2.75;2.75;;;;;15.20;70.94;99038.28;5080258;27;45403;-73
2023/10/23 06:38:35;;;;;;;;;1.00;1.00;;;;;15.17;71.12;99033.94;5095296;27;45375;-73
2023/10/23 06:41:05;;;;;;;;;9.00;7.75;;;;;15.13;71.35;99037.50;5081735;27;45376;-74
2023/10/23 06:43:31;;;;;;;;;46.50;38.25;;;;;15.20;71.09;99057.59;5100298;27;46881;-73
2023/10/23 06:45:57;;;;;;;;;5.50;4.50;;;;;14.99;70.85;99019.28;5094349;27;45586;-74
2023/10/23 06:48:23;;;;;;;;;4.75;4.00;;;;;15.22;70.66;99058.44;5089305;27;45489;-73
2023/10/23 06:50:49;;;;;;;;;2.00;2.00;;;;;14.94;70.40;99007.06;5082174;27;45584;-73
2023/10/23 06:53:15;;;;;;;;;1.00;1.00;;;;;15.29;69.92;99065.34;5087741;27;45973;-73
2023/10/23 06:55:52;;;;;;;;;0.00;0.00;;;;;15.29;69.41;99046.06;5094141;27;45573;-72
2023/10/23 06:58:21;;;;;;;;;0.33;0.00;;;;;15.30;69.53;99061.84;5088282;27;45405;-76
2023/10/23 07:00:48;;;;;;;;;0.00;0.00;;;;;15.14;69.91;99052.41;5090384;27;45568;-72
2023/10/23 07:03:13;;;;;;;;;0.00;0.00;;;;;15.20;69.50;99067.22;5088955;27;46324;-72
2023/10/23 07:05:40;;;;;;;;;0.67;0.00;;;;;15.14;69.92;99073.44;5091009;27;45586;-73
2023/10/23 07:08:06;;;;;;;;;0.00;0.00;;;;;15.15;69.46;99076.94;5083451;27;45551;-71
2023/10/23 07:10:34;;;;;;;;;0.00;0.00;;;;;14.98;69.75;99071.88;5092817;27;45413;-71
2023/10/23 07:13:06;;;;;;;;;0.00;0.00;;;;;15.03;70.16;99086.72;5087543;27;45389;-73
2023/10/23 07:15:33;;;;;;;;;0.00;0.00;;;;;15.00;69.89;99084.13;5088682;27;45508;-72
2023/10/23 07:17:59;;;;;;;;;0.00;0.00;;;;;15.01;69.65;99088.50;5095008;27;45554;-73
2023/10/23 07:20:25;;;;;;;;;0.00;0.00;;;;;15.06;69.70;99085.78;5092851;27;45424;-72
2023/10/23 07:22:50;;;;;;;;;0.00;0.00;;;;;14.89;69.13;99054.44;5096907;27;45453;-73
2023/10/23 07:25:16;;;;;;;;;2.50;2.50;;;;;15.07;69.26;99082.28;5087440;27;45532;-71
2023/10/23 07:27:42;;;;;;;;;0.00;0.00;;;;;15.05;69.21;99071.78;5088769;27;45563;-72
2023/10/23 07:30:09;;;;;;;;;0.00;0.00;;;;;15.05;69.21;99070.91;5088998;27;45558;-72
2023/10/23 07:32:35;;;;;;;;;0.00;0.00;;;;;15.19;68.94;99091.81;5096132;27;45473;-72
2023/10/23 07:35:04;;;;;;;;;0.00;0.00;;;;;15.23;69.08;99098.75;5090220;27;45560;-71
2023/10/23 07:37:30;;;;;;;;;0.33;0.00;;;;;15.18;68.93;99090.03;5086947;27;45510;-74
2023/10/23 07:39:57;;;;;;;;;0.00;0.00;;;;;15.23;68.85;99090.88;5085036;27;45492;-72
2023/10/23 07:42:23;;;;;;;;;0.00;0.00;;;;;15.29;68.65;99103.94;5085785;27;45506;-73
2023/10/23 07:44:48;;;;;;;;;0.00;0.00;;;;;15.35;68.88;99103.00;5087003;27;45519;-72
2023/10/23 07:47:17;;;;;;;;;0.00;0.00;;;;;15.10;69.04;99054.19;5088321;27;45555;-76
2023/10/23 07:49:44;;;;;;;;;1.00;1.00;;;;;15.52;68.95;99112.44;5086003;27;45968;-73
2023/10/23 07:52:09;;;;;;;;;2.00;2.00;;;;;15.68;69.01;99113.09;5089158;27;45939;-75
2023/10/23 07:54:35;;;;;;;;;2.00;1.00;;;;;15.86;68.48;99124.28;5089179;27;45325;-71
2023/10/23 07:57:00;;;;;;;;;1.00;1.00;;;;;16.13;68.12;99128.25;5094611;27;45385;-79
2023/10/23 07:59:26;;;;;;;;;0.00;0.00;;;;;16.35;68.27;99136.69;5079687;27;45615;-74
2023/10/23 08:01:56;;;;;;;;;1.75;1.00;;;;;16.38;67.87;99089.22;5094020;27;45547;-73
2023/10/23 08:04:22;;;;;;;;;0.33;0.33;;;;;16.90;66.48;99134.91;5092829;27;45536;-73
2023/10/23 08:06:48;;;;;;;;;4.00;4.00;;;;;17.03;65.45;99151.38;5092207;27;45556;-73
2023/10/23 08:09:14;;;;;;;;;8.75;8.25;;;;;17.22;65.24;99160.69;5089536;27;45486;-73
2023/10/23 08:11:40;;;;;;;;;5.00;4.75;;;;;17.14;64.77;99138.84;5091226;27;45531;-74
2023/10/23 08:14:05;;;;;;;;;0.00;0.00;;;;;16.56;64.48;99029.19;5089933;27;45411;-73
2023/10/23 08:16:31;;;;;;;;;0.00;0.00;;;;;17.68;64.38;99172.97;5087238;27;45528;-73
2023/10/23 08:18:57;;;;;;;;;0.00;0.00;;;;;18.03;63.91;99187.22;5083247;27;45566;-73
2023/10/23 08:21:28;;;;;;;;;0.00;0.00;;;;;18.37;63.04;99186.44;5086664;27;45936;-73
2023/10/23 08:23:55;;;;;;;;;0.00;0.00;;;;;18.56;62.83;99178.97;5084629;27;45611;-73
2023/10/23 08:26:21;;;;;;;;;3.00;3.00;;;;;18.81;61.93;99167.78;5084310;27;45488;-73
2023/10/23 08:28:47;;;;;;;;;5.00;4.25;;;;;19.01;60.92;99170.78;5087259;27;45536;-73
2023/10/23 08:31:13;;;;;;;;;10.75;9.75;;;;;19.20;60.55;99191.44;5088985;27;45978;-73
2023/10/23 08:33:38;;;;;;;;;4.75;4.75;;;;;19.38;60.44;99190.97;5094630;27;45507;-72
2023/10/23 08:36:04;;;;;;;;;4.00;4.00;;;;;19.49;60.46;99203.91;5079012;27;45532;-72
2023/10/23 08:38:30;;;;;;;;;3.00;3.00;;;;;19.65;60.51;99196.38;5082380;27;45799;-75
2023/10/23 08:40:56;;;;;;;;;6.50;6.50;;;;;19.93;59.51;99209.72;5095231;27;45534;-73
2023/10/23 08:43:23;;;;;;;;;2.00;2.00;;;;;19.99;57.52;99204.22;5087083;27;45531;-73
2023/10/23 08:45:53;;;;;;;;;1.00;1.00;;;;;20.20;56.44;99210.69;5090077;27;45300;-72
2023/10/23 08:48:18;;;;;;;;;8.33;8.33;;;;;20.13;55.96;99219.72;5090332;27;46145;-73
2023/10/23 08:50:46;;;;;;;;;0.00;0.00;;;;;20.25;56.05;99211.41;5091011;27;45449;-78
2023/10/23 08:53:15;;;;;;;;;0.00;0.00;;;;;20.25;55.94;99199.91;5085918;27;45423;-72
2023/10/23 08:55:42;;;;;;;;;0.00;0.00;;;;;20.04;54.85;99186.41;5090736;27;45413;-73
2023/10/23 08:58:13;;;;;;;;;0.00;0.00;;;;;20.13;55.14;99227.69;5090518;27;45637;-72
2023/10/23 09:00:38;;;;;;;;;0.00;0.00;;;;;20.23;54.95;99226.50;5075345;27;45443;-72
2023/10/23 09:03:05;;;;;;;;;0.67;0.67;;;;;20.36;55.10;99228.78;5083252;27;45542;-71
2023/10/23 09:05:30;;;;;;;;;0.00;0.00;;;;;20.42;55.41;99199.41;5090767;27;45504;-72
2023/10/23 09:07:56;;;;;;;;;1.67;1.67;;;;;20.78;54.12;99201.81;5088960;27;45514;-75
2023/10/23 09:10:22;;;;;;;;;0.00;0.00;;;;;20.95;52.74;99225.13;5092460;27;46140;-76
2023/10/23 09:12:55;;;;;;;;;0.00;0.00;;;;;21.15;53.25;99235.94;5095570;27;45441;-77
2023/10/23 09:15:21;;;;;;;;;0.00;0.00;;;;;21.18;52.96;99203.97;5102273;27;45351;-76
2023/10/23 09:17:50;;;;;;;;;0.00;0.00;;;;;21.40;51.87;99241.25;5087113;27;45508;-74
2023/10/23 09:20:16;;;;;;;;;0.00;0.00;;;;;21.43;52.00;99243.84;5083994;27;45430;-76
2023/10/23 09:22:52;;;;;;;;;0.00;0.00;;;;;21.41;50.64;99244.81;5085445;27;45718;-74
2023/10/23 09:25:22;;;;;;;;;0.00;0.00;;;;;21.65;49.75;99249.25;5092503;27;45562;-73
2023/10/23 09:27:49;;;;;;;;;0.00;0.00;;;;;21.89;49.60;99254.59;5094214;27;45467;-74
2023/10/23 09:30:21;;;;;;;;;4.67;4.67;;;;;22.17;49.26;99251.78;5091556;27;46072;-75
2023/10/23 09:32:55;;;;;;;;;0.67;0.67;;;;;22.20;48.86;99226.84;5086160;27;45580;-74
2023/10/23 09:35:24;;;;;;;;;0.00;0.00;;;;;22.24;48.81;99196.56;5090554;27;45454;-75
2023/10/23 09:37:50;;;;;;;;;0.00;0.00;;;;;22.59;48.26;99255.50;5085305;27;45469;-75
2023/10/23 09:40:19;;;;;;;;;0.00;0.00;;;;;22.57;47.59;99246.72;5088853;27;45518;-75
2023/10/23 09:42:45;;;;;;;;;0.33;0.33;;;;;22.69;47.39;99254.19;5080180;27;45559;-74
2023/10/23 09:45:12;;;;;;;;;0.33;0.00;;;;;22.87;47.06;99243.75;5090811;27;45508;-75
2023/10/23 09:47:39;;;;;;;;;0.00;0.00;;;;;22.93;46.77;99238.16;5087348;27;45326;-74
2023/10/23 09:50:05;;;;;;;;;0.00;0.00;;;;;23.21;45.88;99254.72;5093534;27;45496;-75
2023/10/23 09:52:35;;;;;;;;;0.67;0.67;;;;;23.27;45.48;99242.09;5082566;27;45406;-76
2023/10/23 09:55:05;;;;;;;;;0.00;0.00;;;;;23.22;45.50;99266.28;5083495;27;45341;-76
2023/10/23 09:57:39;;;;;;;;;2.00;1.00;;;;;23.48;45.29;99264.28;5090203;27;45515;-75
2023/10/23 10:00:28;;;;;;;;;3.00;3.00;;;;;23.62;43.75;99272.53;5087117;27;45585;-75
2023/10/23 10:02:55;;;;;;;;;2.00;2.00;;;;;23.51;44.20;99280.13;5087577;27;45460;-73
2023/10/23 10:05:56;;;;;;;;;0.00;0.00;;;;;23.76;44.69;99285.25;5087029;27;45349;-74
2023/10/23 10:08:23;;;;;;;;;0.00;0.00;;;;;23.77;44.57;99268.31;5075544;27;45588;-74
2023/10/23 10:10:51;;;;;;;;;1.00;1.00;;;;;24.18;43.91;99292.28;5089092;27;45388;-73
2023/10/23 10:13:19;;;;;;;;;0.33;0.00;;;;;24.26;43.16;99297.28;5092979;27;45328;-74
2023/10/23 10:15:45;;;;;;;;;1.00;1.00;;;;;24.25;43.05;99264.38;5091503;27;45570;-74
2023/10/23 10:18:11;;;;;;;;;0.00;0.00;;;;;24.53;42.40;99289.78;5099148;27;45392;-75
2023/10/23 10:20:39;;;;;;;;;0.00;0.00;;;;;24.42;42.18;99296.47;5090669;27;45511;-74
2023/10/23 10:23:11;;;;;;;;;0.00;0.00;;;;;24.47;42.95;99300.72;5094932;27;45564;-74
2023/10/23 10:25:39;;;;;;;;;1.33;1.33;;;;;24.56;42.49;99300.34;5089148;27;45512;-73
2023/10/23 10:28:07;;;;;;;;;0.33;0.33;;;;;24.52;42.98;99299.59;5092928;27;45417;-74
2023/10/23 10:30:41;;;;;;;;;0.00;0.00;;;;;24.28;42.27;99280.25;5089341;27;46095;-74
2023/10/23 10:33:08;;;;;;;;;0.00;0.00;;;;;24.13;41.42;99264.94;5090327;27;45542;-73
2023/10/23 10:35:34;;;;;;;;;1.00;1.00;;;;;24.20;41.39;99272.59;5093668;27;45533;-74
2023/10/23 10:38:00;;;;;;;;;0.00;0.00;;;;;24.40;42.72;99293.00;5096767;27;45280;-74
2023/10/23 10:40:26;;;;;;;;;0.00;0.00;;;;;24.55;41.47;99293.25;5094805;27;45603;-75
2023/10/23 10:42:55;;;;;;;;;0.00;0.00;;;;;24.73;40.76;99296.84;5095021;27;45353;-76
2023/10/23 10:45:22;;;;;;;;;0.00;0.00;;;;;24.72;41.48;99285.31;5092230;27;45610;-75
2023/10/23 10:47:52;;;;;;;;;1.00;1.00;;;;;24.69;41.59;99309.50;5092265;27;45368;-75
2023/10/23 10:50:34;;;;;;;;;1.00;1.00;;;;;24.61;40.64;99306.31;5086384;27;45562;-74
2023/10/23 10:53:08;;;;;;;;;0.00;0.00;;;;;24.64;41.32;99307.97;5085129;27;45555;-74
2023/10/23 10:55:36;;;;;;;;;1.00;1.00;;;;;24.69;41.51;99319.28;5098457;27;45400;-74
2023/10/23 10:58:04;;;;;;;;;1.33;1.00;;;;;24.55;42.79;99319.94;5094280;27;45461;-73
2023/10/23 11:00:35;;;;;;;;;1.00;1.00;;;;;24.54;42.10;99318.22;5098432;27;46156;-74
2023/10/23 11:03:01;;;;;;;;;0.00;0.00;;;;;24.44;42.78;99319.56;5090062;27;45512;-74
2023/10/23 11:05:27;;;;;;;;;1.00;1.00;;;;;24.46;41.87;99328.38;5094210;27;45383;-75
2023/10/23 11:07:53;;;;;;;;;2.00;2.00;;;;;24.23;42.67;99335.63;5094389;27;45399;-73
2023/10/23 11:10:20;;;;;;;;;1.00;1.00;;;;;24.12;42.45;99332.59;5084182;27;46133;-75
2023/10/23 11:12:47;;;;;;;;;2.67;2.00;;;;;24.07;42.58;99308.78;5092050;27;45744;-74
2023/10/23 11:15:16;;;;;;;;;1.00;1.00;;;;;24.10;42.71;99324.66;5079753;27;45309;-74
2023/10/23 11:17:42;;;;;;;;;2.00;1.00;;;;;24.00;43.37;99308.19;5097093;27;45567;-74
2023/10/23 11:20:10;;;;;;;;;1.67;1.67;;;;;23.87;42.94;99304.34;5094993;27;45584;-74
2023/10/23 11:22:38;;;;;;;;;1.00;1.00;;;;;23.93;42.91;99328.06;5092985;27;45327;-74
2023/10/23 11:25:06;;;;;;;;;2.00;2.00;;;;;23.80;43.06;99303.75;5093796;27;45598;-74
2023/10/23 11:27:33;;;;;;;;;1.00;1.00;;;;;23.48;43.31;99291.81;5095364;27;45306;-74
2023/10/23 11:29:58;;;;;;;;;0.00;0.00;;;;;23.56;42.77;99328.78;5090189;27;46233;-74
2023/10/23 11:32:24;;;;;;;;;1.00;0.00;;;;;23.49;43.73;99321.97;5091823;27;45417;-74